Time;durP1;ratioP1;P1;durP2;ratioP2;P2;SDS_P1;SDS_P2;PMS_P1;PMS_P2;Temp;Humidity;BMP_temperature;BMP_pressure;BME280_temperature;BME280_humidity;BME280_pressure;Samples;Min_cycle;Max_cycle;Signal;HPM_P1;HPM_P2
2022/03/07 00:01:56;;;;;;;6.78;2.38;;;-0.40;99.90;;;;;;6183584;23;20456;-85
2022/03/07 00:04:22;;;;;;;1.63;1.52;;;-1.00;99.90;;;;;;6160297;23;20068;-85
2022/03/07 00:06:48;;;;;;;4.18;2.13;;;-1.10;99.90;;;;;;6155591;23;20024;-84
2022/03/07 00:09:14;;;;;;;6.10;2.08;;;-1.20;99.90;;;;;;6182331;23;20089;-86
2022/03/07 00:11:41;;;;;;;3.38;2.15;;;-1.20;99.90;;;;;;6157559;23;20140;-84
2022/03/07 00:14:07;;;;;;;3.22;1.70;;;-1.30;99.90;;;;;;6182461;23;20332;-85
2022/03/07 00:16:33;;;;;;;3.20;1.95;;;-1.30;99.90;;;;;;6181735;23;20092;-85
2022/03/07 00:18:59;;;;;;;2.67;1.80;;;-1.30;99.90;;;;;;6155873;23;20017;-85
2022/03/07 00:21:25;;;;;;;;;;;-1.10;99.90;;;;;;6157134;23;20461;-86
2022/03/07 00:23:50;;;;;;;14.60;2.63;;;-1.40;99.90;;;;;;6207515;23;19912;-86
2022/03/07 00:26:17;;;;;;;4.45;2.70;;;-1.40;99.90;;;;;;6182558;23;20013;-85
2022/03/07 00:28:44;;;;;;;3.38;2.25;;;-1.40;99.90;;;;;;6158069;23;20017;-85
2022/03/07 00:31:11;;;;;;;2.03;1.83;;;-1.40;99.90;;;;;;6163993;23;20020;-85
2022/03/07 00:33:36;;;;;;;3.95;2.00;;;-1.30;99.90;;;;;;6163093;23;20021;-86
2022/03/07 00:36:03;;;;;;;5.72;2.17;;;-1.40;99.90;;;;;;6158606;23;20121;-86
2022/03/07 00:38:29;;;;;;;2.58;1.95;;;-1.40;99.90;;;;;;6158367;23;20023;-85
2022/03/07 00:40:55;;;;;;;2.72;2.13;;;-1.40;99.90;;;;;;6183805;23;20048;-85
2022/03/07 00:43:21;;;;;;;;;;;-1.40;99.90;;;;;;6183251;23;20017;-85
2022/03/07 00:45:47;;;;;;;2.25;2.00;;;-1.50;99.90;;;;;;6158463;23;19919;-85
2022/03/07 00:48:14;;;;;;;2.63;2.17;;;-1.50;99.90;;;;;;6182979;23;20318;-86
2022/03/07 00:50:42;;;;;;;3.95;2.65;;;-1.60;99.90;;;;;;6157456;23;20029;-85
2022/03/07 00:53:16;;;;;;;5.20;2.95;;;-1.60;99.90;;;;;;6182858;23;20104;-86
2022/03/07 00:55:43;;;;;;;5.90;2.42;;;-1.70;99.90;;;;;;6157720;23;20017;-86
2022/03/07 00:58:09;;;;;;;6.18;2.50;;;-1.70;99.90;;;;;;6157352;23;20021;-85
2022/03/07 01:00:35;;;;;;;2.22;1.95;;;-1.60;99.90;;;;;;6182068;23;20021;-85
2022/03/07 01:03:02;;;;;;;2.40;1.67;;;-1.60;99.90;;;;;;6157434;23;20021;-86
2022/03/07 01:05:28;;;;;;;2.83;1.90;;;-1.50;99.90;;;;;;6181677;23;20013;-85
2022/03/07 01:07:53;;;;;;;10.88;2.45;;;-1.50;99.90;;;;;;6134036;23;20025;-86
2022/03/07 01:10:19;;;;;;;2.92;1.70;;;-1.50;99.90;;;;;;6157377;23;20405;-85
2022/03/07 01:12:45;;;;;;;4.82;2.60;;;-1.40;99.90;;;;;;6133374;23;20393;-86
2022/03/07 01:15:11;;;;;;;3.00;1.88;;;-1.40;99.90;;;;;;6158430;23;20017;-85
2022/03/07 01:17:37;;;;;;;4.28;2.30;;;-1.40;99.90;;;;;;6190518;23;20024;-86
2022/03/07 01:20:04;;;;;;;;;;;-1.40;99.90;;;;;;6186417;23;20048;-85
2022/03/07 01:22:30;;;;;;;5.65;3.33;;;-1.40;99.90;;;;;;6158200;23;19943;-85
2022/03/07 01:24:56;;;;;;;3.92;3.30;;;-1.40;99.90;;;;;;6161311;23;20398;-86
2022/03/07 01:27:22;;;;;;;3.92;2.72;;;-1.40;99.90;;;;;;6185347;23;20025;-87
2022/03/07 01:29:47;;;;;;;8.40;2.72;;;-1.50;99.90;;;;;;6136216;23;20028;-85
2022/03/07 01:32:13;;;;;;;4.20;2.53;;;-1.50;99.90;;;;;;6160886;23;20352;-86
2022/03/07 01:34:39;;;;;;;4.80;3.03;;;-0.90;99.90;;;;;;6108923;23;20032;-87
2022/03/07 01:37:04;;;;;;;;;;;-1.70;99.90;;;;;;6133969;23;20025;-84
2022/03/07 01:39:30;;;;;;;3.65;2.53;;;-1.70;99.90;;;;;;6156463;23;19916;-84
2022/03/07 01:41:56;;;;;;;3.88;2.33;;;-1.20;99.90;;;;;;6181250;23;20068;-85
2022/03/07 01:44:24;;;;;;;;;;;-1.80;99.90;;;;;;6182389;23;20009;-84
2022/03/07 01:46:50;;;;;;;3.53;2.00;;;-1.70;99.90;;;;;;6209321;23;19963;-84
2022/03/07 01:49:17;;;;;;;3.63;2.30;;;-1.70;99.90;;;;;;6159035;23;20017;-85
2022/03/07 01:51:45;;;;;;;3.25;2.42;;;-1.80;99.90;;;;;;6135266;23;20024;-85
2022/03/07 01:54:14;;;;;;;7.03;2.90;;;-1.90;99.90;;;;;;6184390;23;20017;-85
2022/03/07 01:56:42;;;;;;;2.95;2.00;;;-1.90;99.90;;;;;;6134175;23;20384;-85
2022/03/07 01:59:19;;;;;;;2.40;2.20;;;-2.00;99.90;;;;;;6183535;23;20448;-84
2022/03/07 02:01:45;;;;;;;4.97;2.58;;;-2.00;99.90;;;;;;6184506;23;20479;-85
2022/03/07 02:04:11;;;;;;;4.10;2.33;;;-2.00;99.90;;;;;;6158478;23;20092;-84
2022/03/07 02:06:38;;;;;;;5.47;3.00;;;-2.00;99.90;;;;;;6134568;23;20047;-86
2022/03/07 02:09:05;;;;;;;3.13;2.17;;;-2.00;99.90;;;;;;6136821;23;20048;-87
2022/03/07 02:11:32;;;;;;;2.75;2.20;;;-2.00;99.90;;;;;;6184651;23;20021;-86
2022/03/07 02:13:58;;;;;;;5.13;2.78;;;-2.00;99.90;;;;;;6158210;23;20449;-87
2022/03/07 02:16:24;;;;;;;;;;;-2.00;99.90;;;;;;6184100;23;20344;-84
2022/03/07 02:18:51;;;;;;;2.53;2.08;;;-2.10;99.90;;;;;;6183738;23;19995;-85
2022/03/07 02:21:18;;;;;;;8.85;2.20;;;-2.20;99.90;;;;;;6183973;23;20017;-86
2022/03/07 02:23:45;;;;;;;2.72;2.15;;;-2.20;99.90;;;;;;6183416;23;20336;-87
2022/03/07 02:26:15;;;;;;;4.22;2.33;;;-2.20;99.90;;;;;;6184704;23;20017;-86
2022/03/07 02:28:43;;;;;;;2.92;2.13;;;-2.20;99.90;;;;;;6183122;23;20017;-84
2022/03/07 02:31:10;;;;;;;3.60;2.55;;;-2.30;99.90;;;;;;6159637;23;20017;-84
2022/03/07 02:33:36;;;;;;;2.45;2.00;;;-2.40;99.90;;;;;;6134123;23;20025;-85
2022/03/07 02:36:03;;;;;;;7.30;2.40;;;-1.30;99.90;;;;;;6159022;23;20021;-86
2022/03/07 02:38:29;;;;;;;2.10;1.83;;;-2.50;99.90;;;;;;6184472;23;20024;-87
2022/03/07 02:40:55;;;;;;;;;;;-2.50;99.90;;;;;;6159202;23;20025;-84
2022/03/07 02:43:21;;;;;;;2.17;1.77;;;-2.40;99.90;;;;;;6183506;23;19919;-87
2022/03/07 02:45:47;;;;;;;2.38;2.00;;;-1.90;99.90;;;;;;6183534;23;20024;-87
2022/03/07 02:48:13;;;;;;;3.42;2.40;;;-1.90;99.90;;;;;;6161671;23;20460;-84
2022/03/07 02:50:39;;;;;;;;;;;-2.50;99.90;;;;;;6191140;23;20079;-86
2022/03/07 02:53:04;;;;;;;3.45;3.15;;;-2.40;99.90;;;;;;6159066;23;20488;-87
2022/03/07 02:55:31;;;;;;;;;;;-2.40;99.90;;;;;;6189679;23;20078;-85
2022/03/07 02:57:57;;;;;;;2.25;2.05;;;-2.30;99.90;;;;;;6160775;23;19942;-86
2022/03/07 03:00:23;;;;;;;;;;;-2.30;99.90;;;;;;6185813;23;20511;-86
2022/03/07 03:02:49;;;;;;;3.28;2.45;;;-2.30;99.90;;;;;;6213394;23;19916;-84
2022/03/07 03:05:14;;;;;;;;;;;-2.30;99.90;;;;;;6185622;23;20474;-84
2022/03/07 03:07:40;;;;;;;1.50;1.40;;;-1.20;99.90;;;;;;6159571;23;19967;-86
2022/03/07 03:10:07;;;;;;;3.35;2.28;;;-2.50;99.90;;;;;;6134615;23;20021;-86
2022/03/07 03:12:33;;;;;;;4.18;2.85;;;-2.50;99.90;;;;;;6157897;23;20052;-84
2022/03/07 03:14:58;;;;;;;;;;;-2.50;99.90;;;;;;6184686;23;20022;-85
2022/03/07 03:17:25;;;;;;;2.17;1.83;;;-2.50;99.90;;;;;;6158710;23;19955;-88
2022/03/07 03:19:51;;;;;;;2.63;2.25;;;-2.60;99.90;;;;;;6109480;23;20009;-86
2022/03/07 03:22:19;;;;;;;;;;;-1.70;99.90;;;;;;6158231;23;20066;-85
2022/03/07 03:24:48;;;;;;;5.25;2.30;;;-2.60;99.90;;;;;;6182318;23;19955;-83
2022/03/07 03:27:13;;;;;;;2.90;2.30;;;-2.70;99.90;;;;;;6162083;23;20021;-84
2022/03/07 03:29:39;;;;;;;;;;;-2.70;99.90;;;;;;6145896;23;20028;-86
2022/03/07 03:32:05;;;;;;;2.70;2.22;;;-2.80;99.90;;;;;;6158699;23;20247;-84
2022/03/07 03:34:31;;;;;;;4.43;2.17;;;-2.80;99.90;;;;;;6156289;23;20329;-86
2022/03/07 03:36:57;;;;;;;;;;;-2.80;99.90;;;;;;6183294;23;20124;-85
2022/03/07 03:39:22;;;;;;;2.65;2.00;;;-2.80;99.90;;;;;;6133318;23;20347;-85
2022/03/07 03:41:48;;;;;;;;;;;-2.80;99.90;;;;;;6182932;23;20029;-87
2022/03/07 03:44:14;;;;;;;1.77;1.48;;;-2.80;99.90;;;;;;6158349;23;20182;-86
2022/03/07 03:46:40;;;;;;;;;;;-2.80;99.90;;;;;;6158718;23;20027;-85
2022/03/07 03:49:06;;;;;;;2.05;1.90;;;-2.80;99.90;;;;;;6206608;23;20328;-85
2022/03/07 03:51:34;;;;;;;9.88;2.47;;;-2.90;99.90;;;;;;6157189;23;20021;-84
2022/03/07 03:54:00;;;;;;;2.60;2.40;;;-2.90;99.90;;;;;;6157176;23;20072;-85
2022/03/07 03:56:26;;;;;;;5.47;2.05;;;-2.90;99.90;;;;;;6157516;23;20309;-85
2022/03/07 03:58:52;;;;;;;;;;;-3.00;99.90;;;;;;6181822;23;20017;-86
2022/03/07 04:01:17;;;;;;;2.05;1.80;;;-3.00;99.90;;;;;;6156966;23;19978;-84
2022/03/07 04:03:43;;;;;;;;;;;-3.00;99.90;;;;;;6131659;23;20341;-87
2022/03/07 04:06:09;;;;;;;2.70;2.13;;;-3.00;99.90;;;;;;6157126;23;20294;-87
2022/03/07 04:08:38;;;;;;;3.13;1.80;;;-3.00;99.90;;;;;;6132335;23;20063;-86
2022/03/07 04:11:03;;;;;;;2.20;1.83;;;-2.90;99.90;;;;;;6157211;23;20075;-87
2022/03/07 04:13:29;;;;;;;;;;;-2.40;99.90;;;;;;6157362;23;20095;-85
2022/03/07 04:15:54;;;;;;;1.83;1.73;;;-2.90;99.90;;;;;;6181481;23;19982;-85
2022/03/07 04:18:20;;;;;;;;;;;-2.90;99.90;;;;;;6157025;23;20050;-84
2022/03/07 04:20:46;;;;;;;3.35;2.28;;;-3.00;99.90;;;;;;6156603;23;19951;-84
2022/03/07 04:23:11;;;;;;;;;;;-3.00;99.90;;;;;;6133201;23;20017;-85
2022/03/07 04:25:37;;;;;;;4.15;2.22;;;-3.00;99.90;;;;;;6181517;23;19986;-85
2022/03/07 04:28:04;;;;;;;;;;;-3.00;99.90;;;;;;6157536;23;20444;-84
2022/03/07 04:30:30;;;;;;;3.10;2.63;;;-3.00;99.90;;;;;;6157716;23;19934;-86
2022/03/07 04:32:56;;;;;;;;;;;-3.00;99.90;;;;;;6159148;23;20028;-85
2022/03/07 04:35:21;;;;;;;7.32;2.42;;;-3.00;99.90;;;;;;6182348;23;19916;-85
2022/03/07 04:37:47;;;;;;;;;;;-3.00;99.90;;;;;;6133276;23;20056;-86
2022/03/07 04:40:17;;;;;;;3.00;2.50;;;-2.60;99.90;;;;;;6182270;23;19948;-87
2022/03/07 04:42:44;;;;;;;2.50;2.30;;;-3.10;99.90;;;;;;6181587;23;20086;-86
2022/03/07 04:45:11;;;;;;;5.95;2.50;;;-2.90;99.90;;;;;;6181837;23;20036;-85
2022/03/07 04:47:37;;;;;;;4.00;2.40;;;-3.20;99.90;;;;;;6185139;23;20096;-85
2022/03/07 04:50:03;;;;;;;;;;;-3.20;99.90;;;;;;6181948;23;20025;-86
2022/03/07 04:52:29;;;;;;;5.50;3.03;;;-3.20;99.90;;;;;;6207678;23;19916;-85
2022/03/07 04:54:55;;;;;;;;;;;-3.20;99.90;;;;;;6109841;23;20457;-86
2022/03/07 04:57:20;;;;;;;2.88;2.53;;;-3.20;99.90;;;;;;6159993;23;20018;-85
2022/03/07 04:59:46;;;;;;;;;;;-3.20;99.90;;;;;;6149073;23;20013;-86
2022/03/07 05:02:15;;;;;;;2.92;2.63;;;-3.30;99.90;;;;;;6162365;23;20248;-87
2022/03/07 05:04:41;;;;;;;2.85;2.55;;;-3.20;99.90;;;;;;6159102;23;20017;-87
2022/03/07 05:07:07;;;;;;;;;;;-3.30;99.90;;;;;;6188740;23;20045;-84
2022/03/07 05:09:34;;;;;;;3.03;2.70;;;-3.20;99.90;;;;;;6186627;23;19912;-84
2022/03/07 05:12:00;;;;;;;4.00;2.83;;;-3.30;99.90;;;;;;6170235;23;20021;-86
2022/03/07 05:14:26;;;;;;;2.20;2.00;;;-3.30;99.90;;;;;;6182038;23;20021;-85
2022/03/07 05:16:51;;;;;;;;;;;-3.30;99.90;;;;;;6162993;23;20089;-87
2022/03/07 05:19:18;;;;;;;3.05;2.17;;;-3.30;99.90;;;;;;6157297;23;19945;-87
2022/03/07 05:21:43;;;;;;;5.63;2.55;;;-3.30;99.90;;;;;;6158643;23;20032;-87
2022/03/07 05:24:09;;;;;;;;;;;-3.40;99.90;;;;;;6183470;23;20017;-86
2022/03/07 05:26:35;;;;;;;2.33;2.13;;;-3.30;99.90;;;;;;6164284;23;19920;-84
2022/03/07 05:29:03;;;;;;;2.63;2.30;;;-3.90;99.90;;;;;;6114040;23;20017;-86
2022/03/07 05:31:29;;;;;;;3.60;3.17;;;-3.40;99.90;;;;;;6136310;23;20051;-84
2022/03/07 05:33:55;;;;;;;;;;;-3.40;99.90;;;;;;6135169;23;20398;-87
2022/03/07 05:36:21;;;;;;;4.20;2.83;;;-2.20;99.90;;;;;;6210016;23;19912;-87
2022/03/07 05:38:46;;;;;;;;;;;-3.40;99.90;;;;;;6184020;23;20346;-89
2022/03/07 05:41:12;;;;;;;2.97;2.28;;;-1.80;99.90;;;;;;6184592;23;20243;-88
2022/03/07 05:43:37;;;;;;;;;;;-3.50;99.90;;;;;;6158388;23;20040;-86
2022/03/07 05:46:03;;;;;;;3.80;2.63;;;-3.50;99.90;;;;;;6138360;23;19916;-86
2022/03/07 05:48:29;;;;;;;;;;;-3.60;99.90;;;;;;6139140;23;20025;-86
2022/03/07 05:50:54;;;;;;;4.30;2.28;;;-3.50;99.90;;;;;;6158298;23;19954;-86
2022/03/07 05:53:23;;;;;;;;;;;-3.60;99.90;;;;;;6135751;23;20040;-84
2022/03/07 05:55:49;;;;;;;3.53;2.88;;;-3.50;99.90;;;;;;6159678;23;19916;-86
2022/03/07 05:58:21;;;;;;;7.15;4.22;;;-2.80;99.90;;;;;;6188152;23;20155;-84
2022/03/07 06:00:46;;;;;;;;;;;-3.60;99.90;;;;;;6192331;23;20609;-85
2022/03/07 06:03:12;;;;;;;5.43;4.13;;;-3.60;99.90;;;;;;6185906;23;19923;-85
2022/03/07 06:05:38;;;;;;;;;;;-2.30;99.90;;;;;;6137791;23;20016;-87
2022/03/07 06:08:05;;;;;;;6.55;3.72;;;-3.60;99.90;;;;;;6190452;23;19919;-86
2022/03/07 06:10:31;;;;;;;4.45;3.40;;;-3.50;99.90;;;;;;6162503;23;20519;-84
2022/03/07 06:12:57;;;;;;;5.40;3.47;;;-3.50;99.90;;;;;;6183693;23;20023;-88
2022/03/07 06:15:23;;;;;;;;;;;-3.60;99.90;;;;;;6114066;23;20423;-87
2022/03/07 06:17:51;;;;;;;3.15;2.72;;;-3.60;99.90;;;;;;6171152;23;19947;-86
2022/03/07 06:20:17;;;;;;;5.28;3.58;;;-3.60;99.90;;;;;;6154512;23;20496;-89
2022/03/07 06:22:43;;;;;;;5.10;3.65;;;-3.50;99.90;;;;;;6185968;23;20463;-86
2022/03/07 06:25:09;;;;;;;;;;;-3.50;99.90;;;;;;6191256;23;20059;-88
2022/03/07 06:27:36;;;;;;;5.75;3.17;;;-3.40;99.90;;;;;;6228510;23;19912;-87
2022/03/07 06:30:02;;;;;;;3.95;2.72;;;-3.40;99.90;;;;;;6165019;23;20475;-89
2022/03/07 06:32:28;;;;;;;3.28;2.65;;;-3.40;99.90;;;;;;6136838;23;20017;-91
2022/03/07 06:34:54;;;;;;;;;;;-3.40;99.90;;;;;;6184026;23;20108;-84
2022/03/07 06:37:20;;;;;;;5.20;3.78;;;-3.30;99.90;;;;;;6158421;23;19912;-85
2022/03/07 06:39:45;;;;;;;;;;;-3.30;99.90;;;;;;6137798;23;20021;-86
2022/03/07 06:42:11;;;;;;;5.38;3.72;;;-3.20;99.90;;;;;;6171845;23;20334;-86
2022/03/07 06:44:39;;;;;;;;;;;-3.20;99.90;;;;;;6184450;23;20014;-86
2022/03/07 06:47:06;;;;;;;4.43;3.10;;;-3.20;99.90;;;;;;6183709;23;19916;-86
2022/03/07 06:49:33;;;;;;;7.15;3.70;;;-3.20;99.90;;;;;;6158401;23;20463;-86
2022/03/07 06:51:58;;;;;;;;;;;-3.10;99.90;;;;;;6189867;23;20064;-85
2022/03/07 06:54:24;;;;;;;4.60;3.80;;;-2.90;99.90;;;;;;6159626;23;19916;-86
2022/03/07 06:56:50;;;;;;;;;;;-2.90;99.90;;;;;;6134166;23;20075;-87
2022/03/07 06:59:15;;;;;;;6.10;4.03;;;-2.80;99.90;;;;;;6133451;23;19920;-86
2022/03/07 07:01:41;;;;;;;4.55;3.60;;;-2.70;99.90;;;;;;6134659;23;20021;-86
2022/03/07 07:04:07;;;;;;;5.28;4.32;;;-2.50;99.90;;;;;;6133446;23;20389;-86
2022/03/07 07:06:33;;;;;;;;;;;-2.40;99.90;;;;;;6183977;23;20017;-86
2022/03/07 07:08:58;;;;;;;6.10;4.40;;;-2.20;99.90;;;;;;6208243;23;19986;-87
2022/03/07 07:11:24;;;;;;;5.65;3.95;;;-2.00;99.90;;;;;;6161792;23;20009;-85
2022/03/07 07:13:56;;;;;;;5.75;4.60;;;-1.30;99.90;;;;;;6147510;23;20017;-86
2022/03/07 07:16:22;;;;;;;9.85;5.55;;;-1.80;99.90;;;;;;6192523;23;20035;-86
2022/03/07 07:18:47;;;;;;;;;;;-0.70;99.90;;;;;;6134181;23;20021;-87
2022/03/07 07:21:13;;;;;;;5.03;3.58;;;-1.70;99.90;;;;;;6156461;23;19920;-87
2022/03/07 07:23:39;;;;;;;9.27;4.53;;;-1.00;99.90;;;;;;6155978;23;20013;-87
2022/03/07 07:26:06;;;;;;;6.50;4.30;;;-1.40;99.90;;;;;;6156447;23;20021;-86
2022/03/07 07:28:31;;;;;;;8.52;4.50;;;-0.30;99.90;;;;;;6154377;23;20048;-87
2022/03/07 07:30:58;;;;;;;11.27;6.20;;;-1.00;99.90;;;;;;6183111;23;20072;-86
2022/03/07 07:33:23;;;;;;;6.78;4.65;;;-0.80;99.90;;;;;;6163804;23;20021;-88
2022/03/07 07:35:49;;;;;;;10.35;5.85;;;-0.50;99.90;;;;;;6186968;23;20052;-85
2022/03/07 07:38:15;;;;;;;13.18;5.60;;;-0.30;99.90;;;;;;6134308;23;20021;-88
2022/03/07 07:40:41;;;;;;;13.68;5.78;;;0.40;99.90;;;;;;6155643;23;20021;-86
2022/03/07 07:43:07;;;;;;;6.53;5.15;;;0.00;99.90;;;;;;6157624;23;20484;-87
2022/03/07 07:45:33;;;;;;;11.05;6.10;;;0.10;99.90;;;;;;6153335;23;20500;-86
2022/03/07 07:47:59;;;;;;;7.50;5.25;;;1.50;99.90;;;;;;6157680;23;20052;-87
2022/03/07 07:50:26;;;;;;;10.02;5.15;;;0.40;99.90;;;;;;6180683;23;20028;-87
2022/03/07 07:52:53;;;;;;;18.13;5.85;;;0.80;99.90;;;;;;6156513;23;20025;-86
2022/03/07 07:55:19;;;;;;;7.10;4.97;;;1.60;99.90;;;;;;6182507;23;20021;-89
2022/03/07 07:57:45;;;;;;;10.93;5.45;;;1.10;99.90;;;;;;6157139;23;20055;-87
2022/03/07 08:00:11;;;;;;;6.22;4.18;;;1.20;99.90;;;;;;6131604;23;20021;-89
2022/03/07 08:02:37;;;;;;;6.35;4.20;;;1.00;99.90;;;;;;6133621;23;20017;-87
2022/03/07 08:05:03;;;;;;;;;;;1.20;99.90;;;;;;6101822;23;20021;-88
2022/03/07 08:07:29;;;;;;;9.52;5.03;;;1.30;99.90;;;;;;6162202;23;19960;-88
2022/03/07 08:09:55;;;;;;;6.65;4.50;;;1.70;99.90;;;;;;6165414;23;20452;-86
2022/03/07 08:12:20;;;;;;;6.57;4.47;;;1.70;99.90;;;;;;6171356;23;20029;-86
2022/03/07 08:14:46;;;;;;;7.82;4.13;;;1.90;99.90;;;;;;6191333;23;20021;-89
2022/03/07 08:17:12;;;;;;;5.72;3.67;;;1.70;99.90;;;;;;6140860;23;20460;-88
2022/03/07 08:19:38;;;;;;;4.50;3.50;;;1.90;99.90;;;;;;6162315;23;20071;-87
2022/03/07 08:22:04;;;;;;;4.28;3.13;;;2.10;99.90;;;;;;6190685;23;20020;-87
2022/03/07 08:24:30;;;;;;;;;;;2.10;99.90;;;;;;6189628;23;20021;-88
2022/03/07 08:26:57;;;;;;;6.82;3.47;;;2.30;99.90;;;;;;6163573;23;20006;-88
2022/03/07 08:29:23;;;;;;;5.90;3.40;;;2.30;99.90;;;;;;6137269;23;20024;-90
2022/03/07 08:31:49;;;;;;;13.32;3.88;;;2.50;99.90;;;;;;6164085;23;20021;-87
2022/03/07 08:34:15;;;;;;;4.18;3.05;;;2.70;99.90;;;;;;6189420;23;20028;-87
2022/03/07 08:36:43;;;;;;;3.40;2.75;;;3.10;99.90;;;;;;6192993;23;20044;-90
2022/03/07 08:39:09;;;;;;;4.55;2.95;;;2.80;99.90;;;;;;6148803;23;20020;-86
2022/03/07 08:41:35;;;;;;;5.05;2.63;;;3.80;99.90;;;;;;6201531;23;20029;-87
2022/03/07 08:44:01;;;;;;;3.55;2.72;;;3.10;99.90;;;;;;6200527;23;20017;-87
2022/03/07 08:46:26;;;;;;;3.83;2.35;;;3.20;99.90;;;;;;6187559;23;20017;-87
2022/03/07 08:48:52;;;;;;;3.30;2.17;;;3.20;99.90;;;;;;6164804;23;20023;-87
2022/03/07 08:51:18;;;;;;;3.47;2.38;;;3.30;99.90;;;;;;6166092;23;20021;-88
2022/03/07 08:53:44;;;;;;;3.00;2.25;;;4.10;99.90;;;;;;6138527;23;20317;-90
2022/03/07 08:56:11;;;;;;;3.00;2.70;;;3.50;99.90;;;;;;6185072;23;20032;-89
2022/03/07 08:58:36;;;;;;;5.97;2.30;;;3.60;99.90;;;;;;6160311;23;20452;-89
2022/03/07 09:01:03;;;;;;;4.40;2.72;;;3.60;99.90;;;;;;6116220;23;20024;-88
2022/03/07 09:03:28;;;;;;;5.65;2.13;;;5.00;99.90;;;;;;6189529;23;20048;-89
2022/03/07 09:05:54;;;;;;;7.22;2.20;;;3.90;99.90;;;;;;6164996;23;20021;-89
2022/03/07 09:08:20;;;;;;;3.35;2.15;;;3.90;99.90;;;;;;6201491;23;20057;-87
2022/03/07 09:10:46;;;;;;;4.07;2.25;;;3.90;99.90;;;;;;6203125;23;20028;-85
2022/03/07 09:13:11;;;;;;;3.33;1.90;;;4.00;99.90;;;;;;6166059;23;20028;-88
2022/03/07 09:15:37;;;;;;;5.30;2.25;;;4.30;99.90;;;;;;6189373;23;20072;-88
2022/03/07 09:18:03;;;;;;;4.18;2.25;;;4.10;99.90;;;;;;6190140;23;20033;-90
2022/03/07 09:20:29;;;;;;;3.53;2.42;;;4.20;99.90;;;;;;6163148;23;20021;-88
2022/03/07 09:22:55;;;;;;;3.42;2.25;;;4.20;99.90;;;;;;6188369;23;20073;-88
2022/03/07 09:25:20;;;;;;;8.32;2.05;;;5.00;99.90;;;;;;6141787;23;20028;-90
2022/03/07 09:27:46;;;;;;;6.07;2.13;;;4.30;99.90;;;;;;6199372;23;20025;-85
2022/03/07 09:30:14;;;;;;;4.47;1.98;;;4.40;99.90;;;;;;6202952;23;20052;-88
2022/03/07 09:32:40;;;;;;;3.40;2.25;;;4.40;99.90;;;;;;6171202;23;20028;-91
2022/03/07 09:35:06;;;;;;;4.30;2.35;;;4.50;99.90;;;;;;6140069;23;20104;-88
2022/03/07 09:37:32;;;;;;;3.83;2.40;;;4.60;99.90;;;;;;6165398;23;20203;-88
2022/03/07 09:39:59;;;;;;;6.38;1.83;;;4.70;99.90;;;;;;6143724;23;20017;-88
2022/03/07 09:42:26;;;;;;;4.03;2.53;;;4.70;99.90;;;;;;6144439;23;20021;-89
2022/03/07 09:44:52;;;;;;;4.72;2.08;;;4.70;99.90;;;;;;6166564;23;20017;-90
2022/03/07 09:47:21;;;;;;;3.53;2.15;;;4.80;99.90;;;;;;6139193;23;20017;-89
2022/03/07 09:49:49;;;;;;;5.53;2.17;;;4.80;99.90;;;;;;6190320;23;20101;-88
2022/03/07 09:52:15;;;;;;;3.67;2.10;;;4.90;99.90;;;;;;6169003;23;20059;-87
2022/03/07 09:54:40;;;;;;;4.10;2.38;;;4.90;99.90;;;;;;6137540;23;20025;-88
2022/03/07 09:57:06;;;;;;;4.57;2.80;;;5.00;99.90;;;;;;6162554;23;20043;-89
2022/03/07 09:59:34;;;;;;;4.90;2.10;;;5.10;99.90;;;;;;6194607;23;20044;-88
2022/03/07 10:02:12;;;;;;;6.72;2.63;;;5.10;99.90;;;;;;6141514;23;20531;-87
2022/03/07 10:04:45;;;;;;;2.90;1.80;;;5.10;99.90;;;;;;6164299;23;20020;-88
2022/03/07 10:07:11;;;;;;;3.13;1.90;;;5.20;99.90;;;;;;6142791;23;20017;-89
2022/03/07 10:09:38;;;;;;;3.25;2.25;;;5.30;99.90;;;;;;6118380;23;20353;-89
2022/03/07 10:12:04;;;;;;;4.28;1.98;;;5.30;99.90;;;;;;6161732;23;20039;-87
2022/03/07 10:14:45;;;;;;;3.33;2.10;;;5.30;99.90;;;;;;6160772;23;20013;-87
2022/03/07 10:17:26;;;;;;;3.40;2.35;;;5.40;99.90;;;;;;6157962;23;20100;-87
2022/03/07 10:19:54;;;;;;;2.88;1.90;;;5.70;99.90;;;;;;6182233;23;20097;-87
2022/03/07 10:22:27;;;;;;;8.13;2.00;;;5.80;99.90;;;;;;6156847;23;20021;-87
2022/03/07 10:25:02;;;;;;;3.08;2.00;;;5.90;99.90;;;;;;6160958;23;20017;-87
2022/03/07 10:27:31;;;;;;;2.50;2.05;;;6.00;99.90;;;;;;6186299;23;20461;-88
2022/03/07 10:29:57;;;;;;;6.80;2.15;;;6.20;99.90;;;;;;6135308;23;20051;-87
2022/03/07 10:32:23;;;;;;;3.63;2.08;;;6.40;99.90;;;;;;6184083;23;20049;-88
2022/03/07 10:34:49;;;;;;;9.23;2.03;;;6.50;99.90;;;;;;6189878;23;20028;-88
2022/03/07 10:37:15;;;;;;;4.07;1.90;;;7.10;99.90;;;;;;6159677;23;20171;-87
2022/03/07 10:39:48;;;;;;;;;;;6.60;99.90;;;;;;6160297;23;20340;-87
2022/03/07 10:42:18;;;;;;;5.57;2.50;;;6.40;99.90;;;;;;6182685;23;20331;-87
2022/03/07 10:45:06;;;;;;;2.53;1.98;;;6.30;99.90;;;;;;6162199;23;20021;-87
2022/03/07 10:47:32;;;;;;;3.00;2.00;;;6.30;99.90;;;;;;6158100;23;20024;-87
2022/03/07 10:50:01;;;;;;;3.22;2.13;;;6.50;99.90;;;;;;6182113;23;20021;-87
2022/03/07 10:52:35;;;;;;;3.83;2.38;;;6.60;99.90;;;;;;6183819;23;20063;-88
2022/03/07 10:55:01;;;;;;;2.17;1.73;;;6.80;99.90;;;;;;6185354;23;20031;-86
2022/03/07 10:57:27;;;;;;;;;;;6.90;99.90;;;;;;6183893;23;20013;-88
2022/03/07 10:59:53;;;;;;;3.17;2.03;;;7.10;99.90;;;;;;6182102;23;19923;-87
2022/03/07 11:02:19;;;;;;;2.85;2.10;;;7.20;99.90;;;;;;6159450;23;20383;-87
2022/03/07 11:04:50;;;;;;;3.75;1.95;;;7.30;99.90;;;;;;6132258;23;20064;-87
2022/03/07 11:07:16;;;;;;;3.63;1.70;;;7.40;99.90;;;;;;6182424;23;20060;-88
2022/03/07 11:09:42;;;;;;;3.42;2.10;;;7.60;99.90;;;;;;6158908;23;20059;-88
2022/03/07 11:12:12;;;;;;;7.13;2.75;;;7.30;99.90;;;;;;6158266;23;20083;-87
2022/03/07 11:14:40;;;;;;;6.82;2.13;;;7.30;99.90;;;;;;6186070;23;20151;-88
2022/03/07 11:17:17;;;;;;;4.75;1.70;;;7.40;99.90;;;;;;6185810;23;20424;-87
2022/03/07 11:19:46;;;;;;;3.78;2.40;;;7.40;99.90;;;;;;6184679;23;20028;-88
2022/03/07 11:22:12;;;;;;;3.80;2.25;;;7.50;99.90;;;;;;6164416;23;20017;-87
2022/03/07 11:24:39;;;;;;;4.53;2.00;;;7.70;99.90;;;;;;6185397;23;20013;-88
2022/03/07 11:27:06;;;;;;;2.45;1.95;;;7.90;99.90;;;;;;6161688;23;20021;-87
2022/03/07 11:29:37;;;;;;;2.67;1.80;;;8.00;99.90;;;;;;6160396;23;20024;-86
2022/03/07 11:32:06;;;;;;;3.28;2.00;;;8.40;99.90;;;;;;6183281;23;20059;-87
2022/03/07 11:34:32;;;;;;;4.60;2.20;;;8.10;99.90;;;;;;6160376;23;20075;-86
2022/03/07 11:36:58;;;;;;;3.70;1.60;;;8.20;99.90;;;;;;6159529;23;20017;-86
2022/03/07 11:39:34;;;;;;;2.35;1.50;;;8.20;99.90;;;;;;6182600;23;20059;-87
2022/03/07 11:42:18;;;;;;;2.20;1.50;;;8.30;99.90;;;;;;6184889;23;20013;-86
2022/03/07 11:44:45;;;;;;;3.08;1.60;;;8.40;99.90;;;;;;6186766;23;20021;-87
2022/03/07 11:47:19;;;;;;;5.47;1.88;;;8.50;99.90;;;;;;6184497;23;20070;-86
2022/03/07 11:49:46;;;;;;;3.35;1.60;;;8.60;99.90;;;;;;6184074;23;20028;-87
2022/03/07 11:52:18;;;;;;;3.40;1.80;;;8.60;99.90;;;;;;6167701;23;20344;-86
2022/03/07 11:54:52;;;;;;;5.05;2.03;;;8.60;99.90;;;;;;6198763;23;20025;-86
2022/03/07 11:57:30;;;;;;;2.85;1.20;;;8.50;99.90;;;;;;6186918;23;20376;-86
2022/03/07 11:59:56;;;;;;;2.53;1.60;;;8.30;99.90;;;;;;6190755;23;20029;-87
2022/03/07 12:02:22;;;;;;;3.00;1.80;;;8.30;99.90;;;;;;6175133;23;20068;-88
2022/03/07 12:04:47;;;;;;;3.88;2.10;;;8.10;99.90;;;;;;6190761;23;20027;-88
2022/03/07 12:07:25;;;;;;;5.78;2.00;;;8.20;99.90;;;;;;6138701;23;20021;-87
2022/03/07 12:09:51;;;;;;;3.47;1.85;;;8.40;99.90;;;;;;6163841;23;20020;-87
2022/03/07 12:12:21;;;;;;;2.22;1.48;;;8.50;99.90;;;;;;6158375;23;20021;-87
2022/03/07 12:14:47;;;;;;;2.78;1.50;;;8.60;99.90;;;;;;6184795;23;20013;-87
2022/03/07 12:17:19;;;;;;;2.33;1.30;;;8.30;99.90;;;;;;6141800;23;20024;-88
2022/03/07 12:19:53;;;;;;;2.13;1.40;;;8.40;99.90;;;;;;6203319;23;20013;-87
2022/03/07 12:22:22;;;;;;;5.60;1.63;;;8.70;99.90;;;;;;6203519;23;20017;-87
2022/03/07 12:24:48;;;;;;;2.33;1.48;;;8.90;99.90;;;;;;6187642;23;20021;-88
2022/03/07 12:27:19;;;;;;;2.30;1.58;;;9.20;99.90;;;;;;6164353;23;20092;-89
2022/03/07 12:29:45;;;;;;;4.38;1.70;;;9.40;99.90;;;;;;6162457;23;20024;-87
2022/03/07 12:32:12;;;;;;;2.75;1.77;;;9.60;99.90;;;;;;6136096;23;20028;-88
2022/03/07 12:34:40;;;;;;;3.00;1.65;;;9.70;99.90;;;;;;6160641;23;20096;-87
2022/03/07 12:37:18;;;;;;;3.58;1.58;;;9.70;99.90;;;;;;6185883;23;20347;-88
2022/03/07 12:39:50;;;;;;;3.30;1.55;;;9.70;99.90;;;;;;6164759;23;20075;-87
2022/03/07 12:42:27;;;;;;;2.58;1.48;;;9.80;99.90;;;;;;6187571;23;20048;-87
2022/03/07 12:44:54;;;;;;;2.80;1.50;;;9.90;99.90;;;;;;6163626;23;20314;-86
2022/03/07 12:47:32;;;;;;;5.70;2.00;;;9.90;99.90;;;;;;6187676;23;20325;-86
2022/03/07 12:49:58;;;;;;;2.70;1.85;;;9.80;99.90;;;;;;6162000;23;20051;-86
2022/03/07 12:52:29;;;;;;;1.92;1.50;;;9.80;99.90;;;;;;6162849;23;20032;-86
2022/03/07 12:54:56;;;;;;;3.42;2.00;;;9.80;99.90;;;;;;6161510;23;20036;-87
2022/03/07 12:57:23;;;;;;;3.97;1.52;;;9.80;99.90;;;;;;6187320;23;20043;-88
2022/03/07 12:59:59;;;;;;;2.95;1.83;;;9.80;99.90;;;;;;6192346;23;20017;-86
2022/03/07 13:02:36;;;;;;;9.10;1.98;;;9.70;99.90;;;;;;6188188;23;20529;-87